sensor_id;sensor_type;location;lat;lon;timestamp;P1;durP1;ratioP1;P2;durP2;ratioP2
10389;SDS011;5241;47.830;12.972;2023-02-28T00:00:26;9.03;;;5.40;;
10389;SDS011;5241;47.830;12.972;2023-02-28T00:02:52;6.90;;;5.77;;
10389;SDS011;5241;47.830;12.972;2023-02-28T00:05:18;7.40;;;5.07;;
10389;SDS011;5241;47.830;12.972;2023-02-28T00:07:45;7.23;;;5.87;;
10389;SDS011;5241;47.830;12.972;2023-02-28T00:10:13;7.00;;;5.13;;
10389;SDS011;5241;47.830;12.972;2023-02-28T00:12:40;7.77;;;5.70;;
10389;SDS011;5241;47.830;12.972;2023-02-28T00:15:07;7.23;;;4.77;;
10389;SDS011;5241;47.830;12.972;2023-02-28T00:17:34;7.63;;;5.43;;
10389;SDS011;5241;47.830;12.972;2023-02-28T00:20:00;7.33;;;5.23;;
10389;SDS011;5241;47.830;12.972;2023-02-28T00:22:26;7.43;;;5.03;;
10389;SDS011;5241;47.830;12.972;2023-02-28T00:24:52;7.07;;;5.60;;
10389;SDS011;5241;47.830;12.972;2023-02-28T00:27:18;5.73;;;5.10;;
10389;SDS011;5241;47.830;12.972;2023-02-28T00:29:43;8.13;;;5.20;;
10389;SDS011;5241;47.830;12.972;2023-02-28T00:32:11;7.10;;;4.80;;
10389;SDS011;5241;47.830;12.972;2023-02-28T00:34:37;7.10;;;5.53;;
10389;SDS011;5241;47.830;12.972;2023-02-28T00:37:06;5.17;;;4.57;;
10389;SDS011;5241;47.830;12.972;2023-02-28T00:39:34;8.27;;;5.20;;
10389;SDS011;5241;47.830;12.972;2023-02-28T00:42:00;6.43;;;5.53;;
10389;SDS011;5241;47.830;12.972;2023-02-28T00:44:27;7.90;;;5.43;;
10389;SDS011;5241;47.830;12.972;2023-02-28T00:46:53;8.03;;;5.23;;
10389;SDS011;5241;47.830;12.972;2023-02-28T00:49:19;6.83;;;5.47;;
10389;SDS011;5241;47.830;12.972;2023-02-28T00:51:45;8.70;;;5.50;;
10389;SDS011;5241;47.830;12.972;2023-02-28T00:54:11;9.17;;;5.50;;
10389;SDS011;5241;47.830;12.972;2023-02-28T00:56:36;6.10;;;5.20;;
10389;SDS011;5241;47.830;12.972;2023-02-28T00:59:02;7.23;;;5.77;;
10389;SDS011;5241;47.830;12.972;2023-02-28T01:01:27;7.10;;;5.50;;
10389;SDS011;5241;47.830;12.972;2023-02-28T01:03:53;9.37;;;6.30;;
10389;SDS011;5241;47.830;12.972;2023-02-28T01:06:18;10.13;;;6.47;;
10389;SDS011;5241;47.830;12.972;2023-02-28T01:08:44;8.10;;;6.30;;
10389;SDS011;5241;47.830;12.972;2023-02-28T01:11:10;9.37;;;6.20;;
10389;SDS011;5241;47.830;12.972;2023-02-28T01:13:37;7.23;;;6.03;;
10389;SDS011;5241;47.830;12.972;2023-02-28T01:16:03;9.00;;;6.27;;
10389;SDS011;5241;47.830;12.972;2023-02-28T01:18:29;9.43;;;6.80;;
10389;SDS011;5241;47.830;12.972;2023-02-28T01:20:55;7.83;;;6.20;;
10389;SDS011;5241;47.830;12.972;2023-02-28T01:23:21;9.57;;;6.87;;
10389;SDS011;5241;47.830;12.972;2023-02-28T01:25:48;9.03;;;6.40;;
10389;SDS011;5241;47.830;12.972;2023-02-28T01:28:14;9.30;;;6.00;;
10389;SDS011;5241;47.830;12.972;2023-02-28T01:30:40;10.13;;;6.53;;
10389;SDS011;5241;47.830;12.972;2023-02-28T01:33:05;11.23;;;7.37;;
10389;SDS011;5241;47.830;12.972;2023-02-28T01:35:35;8.97;;;6.47;;
10389;SDS011;5241;47.830;12.972;2023-02-28T01:38:01;10.57;;;7.53;;
10389;SDS011;5241;47.830;12.972;2023-02-28T01:40:27;9.70;;;6.97;;
10389;SDS011;5241;47.830;12.972;2023-02-28T01:42:52;10.00;;;7.10;;
10389;SDS011;5241;47.830;12.972;2023-02-28T01:45:36;9.40;;;6.47;;
10389;SDS011;5241;47.830;12.972;2023-02-28T01:48:03;9.90;;;7.30;;
10389;SDS011;5241;47.830;12.972;2023-02-28T01:50:34;9.53;;;7.27;;
10389;SDS011;5241;47.830;12.972;2023-02-28T01:53:04;13.07;;;8.90;;
10389;SDS011;5241;47.830;12.972;2023-02-28T01:55:35;13.67;;;9.20;;
10389;SDS011;5241;47.830;12.972;2023-02-28T01:58:02;12.63;;;8.07;;
10389;SDS011;5241;47.830;12.972;2023-02-28T02:00:31;9.57;;;6.90;;
10389;SDS011;5241;47.830;12.972;2023-02-28T02:02:57;9.83;;;6.70;;
10389;SDS011;5241;47.830;12.972;2023-02-28T02:05:26;10.30;;;6.63;;
10389;SDS011;5241;47.830;12.972;2023-02-28T02:07:56;7.97;;;6.07;;
10389;SDS011;5241;47.830;12.972;2023-02-28T02:10:35;11.30;;;6.90;;
10389;SDS011;5241;47.830;12.972;2023-02-28T02:16:11;10.93;;;7.57;;
10389;SDS011;5241;47.830;12.972;2023-02-28T02:19:10;12.53;;;7.43;;
10389;SDS011;5241;47.830;12.972;2023-02-28T02:30:29;10.40;;;7.27;;
10389;SDS011;5241;47.830;12.972;2023-02-28T02:36:12;11.20;;;6.90;;
10389;SDS011;5241;47.830;12.972;2023-02-28T02:38:58;10.93;;;7.13;;
10389;SDS011;5241;47.830;12.972;2023-02-28T02:41:45;11.07;;;8.13;;
10389;SDS011;5241;47.830;12.972;2023-02-28T02:44:23;13.00;;;7.93;;
10389;SDS011;5241;47.830;12.972;2023-02-28T02:46:58;11.30;;;8.10;;
10389;SDS011;5241;47.830;12.972;2023-02-28T02:49:31;14.17;;;8.93;;
10389;SDS011;5241;47.830;12.972;2023-02-28T02:51:58;13.97;;;8.30;;
10389;SDS011;5241;47.830;12.972;2023-02-28T02:54:36;13.27;;;8.17;;
10389;SDS011;5241;47.830;12.972;2023-02-28T02:57:08;13.53;;;9.07;;
10389;SDS011;5241;47.830;12.972;2023-02-28T02:59:38;16.80;;;9.97;;
10389;SDS011;5241;47.830;12.972;2023-02-28T03:02:07;17.37;;;10.07;;
10389;SDS011;5241;47.830;12.972;2023-02-28T03:04:39;16.33;;;9.37;;
10389;SDS011;5241;47.830;12.972;2023-02-28T03:07:11;14.07;;;9.13;;
10389;SDS011;5241;47.830;12.972;2023-02-28T03:09:37;15.20;;;9.27;;
10389;SDS011;5241;47.830;12.972;2023-02-28T03:12:02;14.03;;;9.23;;
10389;SDS011;5241;47.830;12.972;2023-02-28T03:14:43;13.57;;;8.87;;
10389;SDS011;5241;47.830;12.972;2023-02-28T03:22:50;15.57;;;9.50;;
10389;SDS011;5241;47.830;12.972;2023-02-28T03:25:20;17.93;;;10.33;;
10389;SDS011;5241;47.830;12.972;2023-02-28T03:28:00;15.20;;;9.13;;
10389;SDS011;5241;47.830;12.972;2023-02-28T03:30:45;17.23;;;9.87;;
10389;SDS011;5241;47.830;12.972;2023-02-28T03:33:30;19.03;;;10.23;;
10389;SDS011;5241;47.830;12.972;2023-02-28T03:36:04;16.77;;;10.33;;
10389;SDS011;5241;47.830;12.972;2023-02-28T03:41:06;17.37;;;10.33;;
10389;SDS011;5241;47.830;12.972;2023-02-28T03:43:50;17.73;;;10.73;;
10389;SDS011;5241;47.830;12.972;2023-02-28T03:46:29;14.77;;;9.80;;
10389;SDS011;5241;47.830;12.972;2023-02-28T03:49:07;18.63;;;10.43;;
10389;SDS011;5241;47.830;12.972;2023-02-28T03:51:39;16.47;;;10.40;;
10389;SDS011;5241;47.830;12.972;2023-02-28T03:54:09;16.03;;;10.70;;
10389;SDS011;5241;47.830;12.972;2023-02-28T03:56:50;16.77;;;10.67;;
10389;SDS011;5241;47.830;12.972;2023-02-28T03:59:22;16.97;;;10.33;;
10389;SDS011;5241;47.830;12.972;2023-02-28T04:01:51;17.93;;;10.50;;
10389;SDS011;5241;47.830;12.972;2023-02-28T04:04:17;17.27;;;9.57;;
10389;SDS011;5241;47.830;12.972;2023-02-28T04:06:43;15.63;;;9.97;;
10389;SDS011;5241;47.830;12.972;2023-02-28T04:09:10;13.97;;;9.67;;
10389;SDS011;5241;47.830;12.972;2023-02-28T04:11:39;18.33;;;9.70;;
10389;SDS011;5241;47.830;12.972;2023-02-28T04:14:07;16.50;;;10.73;;
10389;SDS011;5241;47.830;12.972;2023-02-28T04:16:35;21.20;;;11.17;;
10389;SDS011;5241;47.830;12.972;2023-02-28T04:19:03;18.23;;;10.73;;
10389;SDS011;5241;47.830;12.972;2023-02-28T04:21:31;21.53;;;10.87;;
10389;SDS011;5241;47.830;12.972;2023-02-28T04:23:58;17.20;;;10.97;;
10389;SDS011;5241;47.830;12.972;2023-02-28T04:26:27;15.27;;;10.33;;
10389;SDS011;5241;47.830;12.972;2023-02-28T04:28:54;17.30;;;10.27;;
10389;SDS011;5241;47.830;12.972;2023-02-28T04:31:20;19.70;;;11.10;;
10389;SDS011;5241;47.830;12.972;2023-02-28T04:33:46;18.57;;;12.00;;
10389;SDS011;5241;47.830;12.972;2023-02-28T04:36:12;19.17;;;11.90;;
10389;SDS011;5241;47.830;12.972;2023-02-28T04:38:39;17.80;;;11.00;;
10389;SDS011;5241;47.830;12.972;2023-02-28T04:41:05;20.33;;;11.07;;
10389;SDS011;5241;47.830;12.972;2023-02-28T04:43:31;15.10;;;10.27;;
10389;SDS011;5241;47.830;12.972;2023-02-28T04:45:57;17.63;;;11.50;;
10389;SDS011;5241;47.830;12.972;2023-02-28T04:48:26;17.37;;;10.47;;
10389;SDS011;5241;47.830;12.972;2023-02-28T04:50:53;18.50;;;10.03;;
10389;SDS011;5241;47.830;12.972;2023-02-28T04:53:19;17.37;;;11.90;;
10389;SDS011;5241;47.830;12.972;2023-02-28T04:55:45;28.53;;;16.00;;
10389;SDS011;5241;47.830;12.972;2023-02-28T04:58:11;25.00;;;14.33;;
10389;SDS011;5241;47.830;12.972;2023-02-28T05:00:37;23.70;;;13.47;;
10389;SDS011;5241;47.830;12.972;2023-02-28T05:03:02;25.40;;;14.70;;
10389;SDS011;5241;47.830;12.972;2023-02-28T05:05:28;22.37;;;13.57;;
10389;SDS011;5241;47.830;12.972;2023-02-28T05:07:53;21.63;;;13.27;;
10389;SDS011;5241;47.830;12.972;2023-02-28T05:10:20;21.97;;;13.60;;
10389;SDS011;5241;47.830;12.972;2023-02-28T05:12:46;19.70;;;12.10;;
10389;SDS011;5241;47.830;12.972;2023-02-28T05:15:13;18.63;;;11.50;;
10389;SDS011;5241;47.830;12.972;2023-02-28T05:17:39;18.47;;;11.27;;
10389;SDS011;5241;47.830;12.972;2023-02-28T05:20:05;16.77;;;10.67;;
10389;SDS011;5241;47.830;12.972;2023-02-28T05:22:31;15.57;;;10.30;;
10389;SDS011;5241;47.830;12.972;2023-02-28T05:24:57;15.20;;;9.77;;
10389;SDS011;5241;47.830;12.972;2023-02-28T05:27:23;16.57;;;10.23;;
10389;SDS011;5241;47.830;12.972;2023-02-28T05:29:48;15.13;;;9.97;;
10389;SDS011;5241;47.830;12.972;2023-02-28T05:32:14;20.27;;;10.87;;
10389;SDS011;5241;47.830;12.972;2023-02-28T05:34:40;20.10;;;11.63;;
10389;SDS011;5241;47.830;12.972;2023-02-28T05:37:10;24.03;;;14.53;;
10389;SDS011;5241;47.830;12.972;2023-02-28T05:39:37;24.77;;;15.40;;
10389;SDS011;5241;47.830;12.972;2023-02-28T05:42:03;27.20;;;16.00;;
10389;SDS011;5241;47.830;12.972;2023-02-28T05:44:29;26.97;;;16.50;;
10389;SDS011;5241;47.830;12.972;2023-02-28T05:46:55;21.17;;;14.00;;
10389;SDS011;5241;47.830;12.972;2023-02-28T05:49:21;22.00;;;14.10;;
10389;SDS011;5241;47.830;12.972;2023-02-28T05:51:47;24.57;;;15.13;;
10389;SDS011;5241;47.830;12.972;2023-02-28T05:54:12;20.63;;;13.27;;
10389;SDS011;5241;47.830;12.972;2023-02-28T05:56:38;16.67;;;10.77;;
10389;SDS011;5241;47.830;12.972;2023-02-28T05:59:09;18.03;;;11.73;;
10389;SDS011;5241;47.830;12.972;2023-02-28T06:01:39;16.97;;;11.00;;
10389;SDS011;5241;47.830;12.972;2023-02-28T06:04:07;23.37;;;12.37;;
10389;SDS011;5241;47.830;12.972;2023-02-28T06:06:35;20.30;;;12.73;;
10389;SDS011;5241;47.830;12.972;2023-02-28T06:09:02;23.30;;;13.60;;
10389;SDS011;5241;47.830;12.972;2023-02-28T06:11:28;29.60;;;14.50;;
10389;SDS011;5241;47.830;12.972;2023-02-28T06:13:54;23.17;;;13.47;;
10389;SDS011;5241;47.830;12.972;2023-02-28T06:16:24;21.90;;;13.47;;
10389;SDS011;5241;47.830;12.972;2023-02-28T06:18:51;20.47;;;12.27;;
10389;SDS011;5241;47.830;12.972;2023-02-28T06:21:17;19.00;;;11.97;;
10389;SDS011;5241;47.830;12.972;2023-02-28T06:23:43;18.73;;;11.90;;
10389;SDS011;5241;47.830;12.972;2023-02-28T06:26:09;19.37;;;12.87;;
10389;SDS011;5241;47.830;12.972;2023-02-28T06:28:35;22.67;;;13.97;;
10389;SDS011;5241;47.830;12.972;2023-02-28T06:31:05;22.50;;;13.73;;
10389;SDS011;5241;47.830;12.972;2023-02-28T06:33:32;22.93;;;12.63;;
10389;SDS011;5241;47.830;12.972;2023-02-28T06:35:58;23.90;;;12.03;;
10389;SDS011;5241;47.830;12.972;2023-02-28T06:38:23;18.00;;;11.60;;
10389;SDS011;5241;47.830;12.972;2023-02-28T06:40:53;21.07;;;13.13;;
10389;SDS011;5241;47.830;12.972;2023-02-28T06:43:19;22.30;;;14.03;;
10389;SDS011;5241;47.830;12.972;2023-02-28T06:45:45;20.57;;;13.47;;
10389;SDS011;5241;47.830;12.972;2023-02-28T06:48:11;22.83;;;13.90;;
10389;SDS011;5241;47.830;12.972;2023-02-28T06:50:36;20.37;;;12.90;;
10389;SDS011;5241;47.830;12.972;2023-02-28T06:53:02;20.27;;;12.73;;
10389;SDS011;5241;47.830;12.972;2023-02-28T06:55:27;19.97;;;13.47;;
10389;SDS011;5241;47.830;12.972;2023-02-28T06:57:53;18.77;;;12.67;;
10389;SDS011;5241;47.830;12.972;2023-02-28T07:00:19;20.07;;;12.73;;
10389;SDS011;5241;47.830;12.972;2023-02-28T07:02:46;18.23;;;11.80;;
10389;SDS011;5241;47.830;12.972;2023-02-28T07:05:12;16.30;;;12.07;;
10389;SDS011;5241;47.830;12.972;2023-02-28T07:07:38;19.63;;;12.13;;
10389;SDS011;5241;47.830;12.972;2023-02-28T07:10:08;21.03;;;14.67;;
10389;SDS011;5241;47.830;12.972;2023-02-28T07:12:37;19.57;;;12.87;;
10389;SDS011;5241;47.830;12.972;2023-02-28T07:15:04;18.30;;;12.17;;
10389;SDS011;5241;47.830;12.972;2023-02-28T07:17:30;19.37;;;12.77;;
10389;SDS011;5241;47.830;12.972;2023-02-28T07:19:55;17.20;;;11.87;;
10389;SDS011;5241;47.830;12.972;2023-02-28T07:22:21;18.77;;;12.23;;
10389;SDS011;5241;47.830;12.972;2023-02-28T07:24:47;19.73;;;11.73;;
10389;SDS011;5241;47.830;12.972;2023-02-28T07:27:12;21.37;;;14.70;;
10389;SDS011;5241;47.830;12.972;2023-02-28T07:29:48;22.10;;;14.57;;
10389;SDS011;5241;47.830;12.972;2023-02-28T07:32:14;17.57;;;12.50;;
10389;SDS011;5241;47.830;12.972;2023-02-28T07:34:40;20.20;;;13.03;;
10389;SDS011;5241;47.830;12.972;2023-02-28T07:37:05;19.47;;;13.53;;
10389;SDS011;5241;47.830;12.972;2023-02-28T07:39:31;17.63;;;12.07;;
10389;SDS011;5241;47.830;12.972;2023-02-28T07:41:56;16.60;;;12.30;;
10389;SDS011;5241;47.830;12.972;2023-02-28T07:44:22;19.30;;;12.23;;
10389;SDS011;5241;47.830;12.972;2023-02-28T07:46:47;16.07;;;11.97;;
10389;SDS011;5241;47.830;12.972;2023-02-28T07:49:13;16.70;;;11.80;;
10389;SDS011;5241;47.830;12.972;2023-02-28T07:51:38;15.40;;;11.57;;
10389;SDS011;5241;47.830;12.972;2023-02-28T07:54:04;18.33;;;12.20;;
10389;SDS011;5241;47.830;12.972;2023-02-28T07:56:30;15.00;;;10.03;;
10389;SDS011;5241;47.830;12.972;2023-02-28T07:58:55;15.83;;;9.13;;
10389;SDS011;5241;47.830;12.972;2023-02-28T08:01:21;13.93;;;9.37;;
10389;SDS011;5241;47.830;12.972;2023-02-28T08:03:47;15.60;;;9.70;;
10389;SDS011;5241;47.830;12.972;2023-02-28T08:06:17;14.37;;;10.87;;
10389;SDS011;5241;47.830;12.972;2023-02-28T08:08:45;15.20;;;11.03;;
10389;SDS011;5241;47.830;12.972;2023-02-28T08:11:11;14.83;;;10.30;;
10389;SDS011;5241;47.830;12.972;2023-02-28T08:13:36;17.53;;;10.87;;
10389;SDS011;5241;47.830;12.972;2023-02-28T08:16:02;14.60;;;10.50;;
10389;SDS011;5241;47.830;12.972;2023-02-28T08:18:28;17.83;;;11.97;;
10389;SDS011;5241;47.830;12.972;2023-02-28T08:20:53;17.93;;;11.53;;
10389;SDS011;5241;47.830;12.972;2023-02-28T08:23:19;15.90;;;10.67;;
10389;SDS011;5241;47.830;12.972;2023-02-28T08:25:44;14.43;;;10.77;;
10389;SDS011;5241;47.830;12.972;2023-02-28T08:28:17;15.40;;;9.87;;
10389;SDS011;5241;47.830;12.972;2023-02-28T08:30:42;13.40;;;9.80;;
10389;SDS011;5241;47.830;12.972;2023-02-28T08:33:08;12.10;;;10.17;;
10389;SDS011;5241;47.830;12.972;2023-02-28T08:35:35;13.03;;;10.47;;
10389;SDS011;5241;47.830;12.972;2023-02-28T08:38:01;14.17;;;9.80;;
10389;SDS011;5241;47.830;12.972;2023-02-28T08:40:26;11.23;;;9.13;;
10389;SDS011;5241;47.830;12.972;2023-02-28T08:42:52;13.20;;;9.83;;
10389;SDS011;5241;47.830;12.972;2023-02-28T08:45:18;13.03;;;9.90;;
10389;SDS011;5241;47.830;12.972;2023-02-28T08:47:44;15.00;;;9.67;;
10389;SDS011;5241;47.830;12.972;2023-02-28T08:50:10;11.57;;;9.20;;
10389;SDS011;5241;47.830;12.972;2023-02-28T08:52:35;11.43;;;9.37;;
10389;SDS011;5241;47.830;12.972;2023-02-28T08:55:01;11.57;;;9.30;;
10389;SDS011;5241;47.830;12.972;2023-02-28T08:57:26;13.03;;;10.23;;
10389;SDS011;5241;47.830;12.972;2023-02-28T08:59:52;14.77;;;10.10;;
10389;SDS011;5241;47.830;12.972;2023-02-28T09:02:18;12.00;;;9.03;;
10389;SDS011;5241;47.830;12.972;2023-02-28T09:04:43;11.47;;;9.53;;
10389;SDS011;5241;47.830;12.972;2023-02-28T09:07:12;13.30;;;9.80;;
10389;SDS011;5241;47.830;12.972;2023-02-28T09:09:38;12.53;;;10.60;;
10389;SDS011;5241;47.830;12.972;2023-02-28T09:12:18;10.97;;;9.23;;
10389;SDS011;5241;47.830;12.972;2023-02-28T09:14:51;12.90;;;9.73;;
10389;SDS011;5241;47.830;12.972;2023-02-28T09:17:17;13.53;;;9.47;;
10389;SDS011;5241;47.830;12.972;2023-02-28T09:19:43;13.03;;;10.50;;
10389;SDS011;5241;47.830;12.972;2023-02-28T09:22:09;12.17;;;10.20;;
10389;SDS011;5241;47.830;12.972;2023-02-28T09:24:36;13.20;;;9.10;;
10389;SDS011;5241;47.830;12.972;2023-02-28T09:27:02;14.27;;;11.33;;
10389;SDS011;5241;47.830;12.972;2023-02-28T09:29:28;9.77;;;8.73;;
10389;SDS011;5241;47.830;12.972;2023-02-28T09:31:54;10.30;;;9.20;;
10389;SDS011;5241;47.830;12.972;2023-02-28T09:34:21;12.33;;;11.00;;
10389;SDS011;5241;47.830;12.972;2023-02-28T09:36:46;10.87;;;8.90;;
10389;SDS011;5241;47.830;12.972;2023-02-28T09:39:12;10.93;;;9.57;;
10389;SDS011;5241;47.830;12.972;2023-02-28T09:41:41;14.73;;;9.43;;
10389;SDS011;5241;47.830;12.972;2023-02-28T09:44:17;13.03;;;10.13;;
10389;SDS011;5241;47.830;12.972;2023-02-28T09:46:49;11.90;;;9.63;;
10389;SDS011;5241;47.830;12.972;2023-02-28T09:49:19;12.33;;;9.63;;
10389;SDS011;5241;47.830;12.972;2023-02-28T09:52:00;15.70;;;11.00;;
10389;SDS011;5241;47.830;12.972;2023-02-28T09:54:29;11.97;;;9.77;;
10389;SDS011;5241;47.830;12.972;2023-02-28T10:00:02;13.47;;;10.67;;
10389;SDS011;5241;47.830;12.972;2023-02-28T10:05:48;15.60;;;11.80;;
10389;SDS011;5241;47.830;12.972;2023-02-28T10:11:27;16.73;;;11.90;;
10389;SDS011;5241;47.830;12.972;2023-02-28T10:14:02;14.27;;;12.57;;
10389;SDS011;5241;47.830;12.972;2023-02-28T10:16:59;16.13;;;13.43;;
10389;SDS011;5241;47.830;12.972;2023-02-28T10:19:34;16.07;;;13.77;;
10389;SDS011;5241;47.830;12.972;2023-02-28T10:24:48;15.87;;;13.03;;
10389;SDS011;5241;47.830;12.972;2023-02-28T10:27:22;17.60;;;13.40;;
10389;SDS011;5241;47.830;12.972;2023-02-28T10:29:50;17.20;;;14.73;;
10389;SDS011;5241;47.830;12.972;2023-02-28T10:32:19;17.63;;;13.70;;
10389;SDS011;5241;47.830;12.972;2023-02-28T10:34:57;19.10;;;14.83;;
10389;SDS011;5241;47.830;12.972;2023-02-28T10:37:40;17.20;;;14.07;;
10389;SDS011;5241;47.830;12.972;2023-02-28T10:40:30;18.70;;;15.80;;
10389;SDS011;5241;47.830;12.972;2023-02-28T10:45:31;20.87;;;16.37;;
10389;SDS011;5241;47.830;12.972;2023-02-28T10:48:03;20.97;;;15.70;;
10389;SDS011;5241;47.830;12.972;2023-02-28T10:50:43;19.17;;;15.40;;
10389;SDS011;5241;47.830;12.972;2023-02-28T10:58:31;18.33;;;14.67;;
10389;SDS011;5241;47.830;12.972;2023-02-28T11:01:17;18.83;;;14.93;;
10389;SDS011;5241;47.830;12.972;2023-02-28T11:03:48;18.93;;;14.93;;
10389;SDS011;5241;47.830;12.972;2023-02-28T11:06:18;17.33;;;13.87;;
10389;SDS011;5241;47.830;12.972;2023-02-28T11:08:59;18.77;;;15.43;;
10389;SDS011;5241;47.830;12.972;2023-02-28T11:11:28;16.70;;;13.13;;
10389;SDS011;5241;47.830;12.972;2023-02-28T11:13:57;15.97;;;13.60;;
10389;SDS011;5241;47.830;12.972;2023-02-28T11:16:36;16.67;;;13.40;;
10389;SDS011;5241;47.830;12.972;2023-02-28T11:19:03;17.37;;;13.90;;
10389;SDS011;5241;47.830;12.972;2023-02-28T11:21:33;17.90;;;14.13;;
10389;SDS011;5241;47.830;12.972;2023-02-28T11:24:24;17.10;;;14.13;;
10389;SDS011;5241;47.830;12.972;2023-02-28T11:26:47;16.63;;;14.23;;
10389;SDS011;5241;47.830;12.972;2023-02-28T11:29:24;18.10;;;13.87;;
10389;SDS011;5241;47.830;12.972;2023-02-28T11:32:03;17.30;;;14.87;;
10389;SDS011;5241;47.830;12.972;2023-02-28T11:34:36;15.57;;;13.10;;
10389;SDS011;5241;47.830;12.972;2023-02-28T11:37:03;16.07;;;12.00;;
10389;SDS011;5241;47.830;12.972;2023-02-28T11:39:31;14.80;;;12.97;;
10389;SDS011;5241;47.830;12.972;2023-02-28T11:47:56;20.83;;;15.40;;
10389;SDS011;5241;47.830;12.972;2023-02-28T11:50:36;21.80;;;16.60;;
10389;SDS011;5241;47.830;12.972;2023-02-28T12:14:47;20.30;;;15.97;;
10389;SDS011;5241;47.830;12.972;2023-02-28T12:20:23;16.67;;;14.47;;
10389;SDS011;5241;47.830;12.972;2023-02-28T12:28:41;15.90;;;14.10;;
10389;SDS011;5241;47.830;12.972;2023-02-28T12:31:14;17.57;;;14.53;;
10389;SDS011;5241;47.830;12.972;2023-02-28T12:33:46;16.30;;;14.60;;
10389;SDS011;5241;47.830;12.972;2023-02-28T12:36:16;18.37;;;16.13;;
10389;SDS011;5241;47.830;12.972;2023-02-28T12:39:29;17.27;;;15.33;;
10389;SDS011;5241;47.830;12.972;2023-02-28T12:41:47;17.57;;;15.23;;
10389;SDS011;5241;47.830;12.972;2023-02-28T12:44:27;16.10;;;14.50;;
10389;SDS011;5241;47.830;12.972;2023-02-28T12:47:00;18.30;;;15.60;;
10389;SDS011;5241;47.830;12.972;2023-02-28T12:49:31;16.80;;;14.63;;
10389;SDS011;5241;47.830;12.972;2023-02-28T12:51:59;16.90;;;14.80;;
10389;SDS011;5241;47.830;12.972;2023-02-28T12:54:29;16.03;;;14.43;;
10389;SDS011;5241;47.830;12.972;2023-02-28T12:57:09;16.90;;;14.33;;
10389;SDS011;5241;47.830;12.972;2023-02-28T12:59:48;14.97;;;13.33;;
10389;SDS011;5241;47.830;12.972;2023-02-28T13:04:57;15.77;;;14.07;;
10389;SDS011;5241;47.830;12.972;2023-02-28T13:10:42;16.70;;;14.77;;
10389;SDS011;5241;47.830;12.972;2023-02-28T13:13:18;17.93;;;14.17;;
10389;SDS011;5241;47.830;12.972;2023-02-28T13:16:23;16.00;;;13.93;;
10389;SDS011;5241;47.830;12.972;2023-02-28T13:18:43;16.13;;;14.47;;
10389;SDS011;5241;47.830;12.972;2023-02-28T13:21:28;16.43;;;14.57;;
10389;SDS011;5241;47.830;12.972;2023-02-28T13:29:02;17.03;;;14.50;;
10389;SDS011;5241;47.830;12.972;2023-02-28T13:39:54;15.97;;;14.27;;
10389;SDS011;5241;47.830;12.972;2023-02-28T13:50:38;16.97;;;14.97;;
10389;SDS011;5241;47.830;12.972;2023-02-28T13:55:46;16.67;;;14.50;;
10389;SDS011;5241;47.830;12.972;2023-02-28T14:09:01;19.17;;;16.30;;
10389;SDS011;5241;47.830;12.972;2023-02-28T14:11:30;17.47;;;15.17;;
10389;SDS011;5241;47.830;12.972;2023-02-28T14:14:00;19.83;;;15.17;;
10389;SDS011;5241;47.830;12.972;2023-02-28T14:16:34;18.80;;;16.13;;
10389;SDS011;5241;47.830;12.972;2023-02-28T14:19:14;17.80;;;15.13;;
10389;SDS011;5241;47.830;12.972;2023-02-28T14:21:49;18.67;;;14.10;;
10389;SDS011;5241;47.830;12.972;2023-02-28T14:35:18;20.07;;;15.43;;
10389;SDS011;5241;47.830;12.972;2023-02-28T14:37:46;20.20;;;15.60;;
10389;SDS011;5241;47.830;12.972;2023-02-28T14:40:17;21.00;;;15.03;;
10389;SDS011;5241;47.830;12.972;2023-02-28T14:42:59;19.57;;;15.63;;
10389;SDS011;5241;47.830;12.972;2023-02-28T14:45:31;22.40;;;17.17;;
10389;SDS011;5241;47.830;12.972;2023-02-28T14:47:59;21.50;;;17.10;;
10389;SDS011;5241;47.830;12.972;2023-02-28T14:50:29;22.37;;;16.93;;
10389;SDS011;5241;47.830;12.972;2023-02-28T14:52:56;20.80;;;17.10;;
10389;SDS011;5241;47.830;12.972;2023-02-28T14:55:25;21.97;;;16.37;;
10389;SDS011;5241;47.830;12.972;2023-02-28T14:57:55;20.87;;;15.70;;
10389;SDS011;5241;47.830;12.972;2023-02-28T15:00:34;21.03;;;16.47;;
10389;SDS011;5241;47.830;12.972;2023-02-28T15:03:17;21.77;;;17.93;;
10389;SDS011;5241;47.830;12.972;2023-02-28T15:05:52;22.70;;;16.97;;
10389;SDS011;5241;47.830;12.972;2023-02-28T15:08:22;21.40;;;16.13;;
10389;SDS011;5241;47.830;12.972;2023-02-28T15:10:58;17.53;;;14.97;;
10389;SDS011;5241;47.830;12.972;2023-02-28T15:13:40;22.20;;;16.17;;
10389;SDS011;5241;47.830;12.972;2023-02-28T15:16:16;20.43;;;16.60;;
10389;SDS011;5241;47.830;12.972;2023-02-28T15:21:29;23.13;;;16.47;;
10389;SDS011;5241;47.830;12.972;2023-02-28T15:26:39;18.70;;;15.13;;
10389;SDS011;5241;47.830;12.972;2023-02-28T15:29:10;24.87;;;16.83;;
10389;SDS011;5241;47.830;12.972;2023-02-28T15:31:51;22.50;;;15.90;;
10389;SDS011;5241;47.830;12.972;2023-02-28T15:34:38;22.67;;;16.13;;
10389;SDS011;5241;47.830;12.972;2023-02-28T15:39:58;21.93;;;15.83;;
10389;SDS011;5241;47.830;12.972;2023-02-28T15:42:37;22.43;;;16.30;;
10389;SDS011;5241;47.830;12.972;2023-02-28T15:45:03;22.40;;;15.53;;
10389;SDS011;5241;47.830;12.972;2023-02-28T15:47:29;24.00;;;15.93;;
10389;SDS011;5241;47.830;12.972;2023-02-28T15:49:59;21.23;;;15.30;;
10389;SDS011;5241;47.830;12.972;2023-02-28T15:55:11;19.60;;;14.93;;
10389;SDS011;5241;47.830;12.972;2023-02-28T15:57:44;20.73;;;15.50;;
10389;SDS011;5241;47.830;12.972;2023-02-28T16:00:14;18.10;;;13.93;;
10389;SDS011;5241;47.830;12.972;2023-02-28T16:02:41;19.70;;;15.23;;
10389;SDS011;5241;47.830;12.972;2023-02-28T16:07:36;20.83;;;15.30;;
10389;SDS011;5241;47.830;12.972;2023-02-28T16:10:07;19.70;;;13.30;;
10389;SDS011;5241;47.830;12.972;2023-02-28T16:12:35;18.30;;;14.77;;
10389;SDS011;5241;47.830;12.972;2023-02-28T16:15:05;17.07;;;14.10;;
10389;SDS011;5241;47.830;12.972;2023-02-28T16:17:42;20.37;;;14.37;;
10389;SDS011;5241;47.830;12.972;2023-02-28T16:20:15;18.27;;;13.60;;
10389;SDS011;5241;47.830;12.972;2023-02-28T16:22:42;20.87;;;14.53;;
10389;SDS011;5241;47.830;12.972;2023-02-28T16:25:12;18.23;;;13.47;;
10389;SDS011;5241;47.830;12.972;2023-02-28T16:27:39;18.93;;;13.60;;
10389;SDS011;5241;47.830;12.972;2023-02-28T16:30:05;19.63;;;14.47;;
10389;SDS011;5241;47.830;12.972;2023-02-28T16:32:33;20.60;;;14.53;;
10389;SDS011;5241;47.830;12.972;2023-02-28T16:35:00;20.47;;;13.93;;
10389;SDS011;5241;47.830;12.972;2023-02-28T16:37:27;20.83;;;14.67;;
10389;SDS011;5241;47.830;12.972;2023-02-28T16:39:53;17.17;;;12.87;;
10389;SDS011;5241;47.830;12.972;2023-02-28T16:42:26;17.57;;;13.40;;
10389;SDS011;5241;47.830;12.972;2023-02-28T16:44:53;18.33;;;13.73;;
10389;SDS011;5241;47.830;12.972;2023-02-28T16:47:19;22.00;;;14.77;;
10389;SDS011;5241;47.830;12.972;2023-02-28T16:49:45;26.70;;;17.40;;
10389;SDS011;5241;47.830;12.972;2023-02-28T16:52:12;21.83;;;14.73;;
10389;SDS011;5241;47.830;12.972;2023-02-28T16:54:39;19.60;;;14.00;;
10389;SDS011;5241;47.830;12.972;2023-02-28T16:57:05;17.90;;;13.10;;
10389;SDS011;5241;47.830;12.972;2023-02-28T16:59:39;17.20;;;12.53;;
10389;SDS011;5241;47.830;12.972;2023-02-28T17:02:09;16.80;;;12.97;;
10389;SDS011;5241;47.830;12.972;2023-02-28T17:04:38;16.93;;;12.53;;
10389;SDS011;5241;47.830;12.972;2023-02-28T17:07:03;19.37;;;13.33;;